createdAt,value
2024-04-23T00:01:41.069Z,2.09
2024-04-23T00:06:45.334Z,2.02
2024-04-23T00:11:49.610Z,1.97
2024-04-23T00:16:53.875Z,1.96
2024-04-23T00:21:59.095Z,2.07
2024-04-23T00:27:03.945Z,2.13
2024-04-23T00:32:09.145Z,2.25
2024-04-23T00:37:13.494Z,2.27
2024-04-23T00:42:17.645Z,2.31
2024-04-23T00:47:21.823Z,2.30
2024-04-23T00:52:26.123Z,2.21
2024-04-23T00:57:30.322Z,2.08
2024-04-23T01:02:34.493Z,2.03
2024-04-23T01:07:38.674Z,1.77
2024-04-23T01:12:42.862Z,1.72
2024-04-23T01:17:47.262Z,1.72
2024-04-23T01:22:52.055Z,1.55
2024-04-23T01:27:56.778Z,1.43
2024-04-23T01:33:03.247Z,1.37
2024-04-23T01:38:10.017Z,1.41
2024-04-23T01:43:14.397Z,1.16
2024-04-23T01:48:18.651Z,1.05
2024-04-23T01:53:22.932Z,1.06
2024-04-23T01:58:27.293Z,0.82
2024-04-23T02:03:31.531Z,0.79
2024-04-23T02:08:35.689Z,0.70
2024-04-23T02:13:39.838Z,0.78
2024-04-23T02:18:44.097Z,0.70
2024-04-23T02:23:48.358Z,0.71
2024-04-23T02:28:52.623Z,0.76
2024-04-23T02:33:56.998Z,0.82
2024-04-23T02:39:01.280Z,0.89
2024-04-23T02:44:05.762Z,0.80
2024-04-23T02:49:09.923Z,0.82
2024-04-23T02:54:14.411Z,0.77
2024-04-23T02:59:18.910Z,0.70
2024-04-23T03:04:23.044Z,0.73
2024-04-23T03:09:29.336Z,0.70
2024-04-23T03:14:33.778Z,0.65
2024-04-23T03:19:39.042Z,0.61
2024-04-23T03:24:43.602Z,0.60
2024-04-23T03:29:48.387Z,0.52
2024-04-23T03:34:52.768Z,0.48
2024-04-23T03:39:57.649Z,0.48
2024-04-23T03:45:02.022Z,0.41
2024-04-23T03:50:06.422Z,0.42
2024-04-23T03:55:11.253Z,0.47
2024-04-23T04:00:15.448Z,0.43
2024-04-23T04:05:35.928Z,0.46
2024-04-23T04:10:40.332Z,0.59
2024-04-23T04:15:44.974Z,0.61
2024-04-23T04:20:49.287Z,0.63
2024-04-23T04:25:53.526Z,0.66
2024-04-23T04:30:57.792Z,0.67
2024-04-23T04:36:01.989Z,0.70
2024-04-23T04:41:06.559Z,0.74
2024-04-23T04:46:11.072Z,0.75
2024-04-23T04:51:15.382Z,0.80
2024-04-23T04:56:19.690Z,0.85
2024-04-23T05:01:25.220Z,0.88
2024-04-23T05:06:29.515Z,0.86
2024-04-23T05:11:33.768Z,0.85
2024-04-23T05:16:38.046Z,0.82
2024-04-23T05:21:42.579Z,0.96
2024-04-23T05:26:46.848Z,0.75
2024-04-23T05:32:07.385Z,0.73
2024-04-23T05:37:11.601Z,0.64
2024-04-23T05:42:16.304Z,0.69
2024-04-23T05:47:21.366Z,0.73
2024-04-23T05:52:30.217Z,0.75
2024-04-23T05:57:34.956Z,0.71
2024-04-23T06:02:40.165Z,0.69
2024-04-23T06:07:45.065Z,0.79
2024-04-23T06:12:51.109Z,0.74
2024-04-23T06:17:55.663Z,0.73
2024-04-23T06:23:00.090Z,0.82
2024-04-23T06:28:04.782Z,0.96
2024-04-23T06:33:09.205Z,0.85
2024-04-23T06:38:13.592Z,0.99
2024-04-23T06:43:18.086Z,0.91
2024-04-23T06:48:22.472Z,1.00
2024-04-23T06:53:27.660Z,0.95
2024-04-23T06:58:32.092Z,0.92
2024-04-23T07:03:37.401Z,0.99
2024-04-23T07:08:42.162Z,1.00
2024-04-23T07:13:47.624Z,0.81
2024-04-23T07:18:56.822Z,0.84
2024-04-23T07:24:06.486Z,0.98
2024-04-23T07:29:10.866Z,1.28
2024-04-23T07:34:15.257Z,1.39
2024-04-23T07:39:19.519Z,1.63
2024-04-23T07:44:23.764Z,1.55
2024-04-23T07:49:28.220Z,2.07
2024-04-23T07:54:32.649Z,1.59
2024-04-23T07:59:37.597Z,1.47
2024-04-23T08:04:43.182Z,1.55
2024-04-23T08:09:47.518Z,1.86
2024-04-23T08:14:52.072Z,1.86
2024-04-23T08:19:56.331Z,1.83
2024-04-23T08:25:00.651Z,1.69
2024-04-23T08:30:05.258Z,1.82
2024-04-23T08:35:09.534Z,1.67
2024-04-23T08:40:13.831Z,1.65
2024-04-23T08:45:18.256Z,1.46
2024-04-23T08:50:23.559Z,1.79
2024-04-23T08:55:27.831Z,1.83
2024-04-23T09:00:35.155Z,2.00
2024-04-23T09:05:43.005Z,2.27
2024-04-23T09:10:47.909Z,2.00
2024-04-23T09:15:52.612Z,2.06
2024-04-23T09:20:57.084Z,2.67
2024-04-23T09:26:01.409Z,2.84
2024-04-23T09:31:05.973Z,2.61
2024-04-23T09:36:10.866Z,2.55
2024-04-23T09:41:15.602Z,2.32
2024-04-23T09:46:20.124Z,2.12
2024-04-23T09:51:24.692Z,2.28
2024-04-23T09:56:28.996Z,2.04
2024-04-23T10:01:34.564Z,2.10
2024-04-23T10:06:39.744Z,2.44
2024-04-23T10:11:44.903Z,2.14
2024-04-23T10:16:49.580Z,2.39
2024-04-23T10:21:54.148Z,2.63
2024-04-23T10:26:58.672Z,2.50
2024-04-23T10:32:02.797Z,2.22
2024-04-23T10:37:07.088Z,2.29
2024-04-23T10:42:11.369Z,2.50
2024-04-23T10:47:15.567Z,2.28
2024-04-23T10:52:21.859Z,2.37
2024-04-23T10:57:26.710Z,2.27
2024-04-23T11:02:32.078Z,2.23
2024-04-23T11:07:38.042Z,2.32
2024-04-23T11:12:43.399Z,2.17
2024-04-23T11:17:47.685Z,2.22
2024-04-23T11:22:51.953Z,2.12
2024-04-23T11:27:56.414Z,2.13
2024-04-23T11:33:00.813Z,2.34
2024-04-23T11:38:05.082Z,2.27
2024-04-23T11:43:09.399Z,2.11
2024-04-23T11:48:13.859Z,2.28
2024-04-23T11:53:18.504Z,2.09
2024-04-23T11:58:22.982Z,2.10
2024-04-23T12:03:27.338Z,2.17
2024-04-23T12:08:31.613Z,2.24
2024-04-23T12:13:35.905Z,2.22
2024-04-23T12:18:40.352Z,2.29
2024-04-23T12:23:44.551Z,2.19
2024-04-23T12:28:48.827Z,2.42
2024-04-23T12:33:53.376Z,2.51
2024-04-23T12:38:57.649Z,2.64
2024-04-23T12:44:01.966Z,2.54
2024-04-23T12:49:06.328Z,2.47
2024-04-23T12:54:10.677Z,2.61
2024-04-23T12:59:16.269Z,2.59
2024-04-23T13:04:20.879Z,2.67
2024-04-23T13:09:25.199Z,2.56
2024-04-23T13:14:31.677Z,2.66
2024-04-23T13:19:36.010Z,2.41
2024-04-23T13:24:40.528Z,2.37
2024-04-23T13:29:46.619Z,2.43
2024-04-23T13:34:50.850Z,2.47
2024-04-23T13:40:00.544Z,2.54
2024-04-23T13:45:04.686Z,2.64
2024-04-23T13:50:12.154Z,2.54
2024-04-23T13:55:17.314Z,2.60
2024-04-23T14:00:21.461Z,2.92
2024-04-23T14:05:25.904Z,2.78
2024-04-23T14:10:30.124Z,2.84
2024-04-23T14:15:34.452Z,2.88
2024-04-23T14:20:39.273Z,2.89
2024-04-23T14:25:43.726Z,3.06
2024-04-23T14:30:48.019Z,3.03
2024-04-23T14:35:52.439Z,3.03
2024-04-23T14:40:56.654Z,2.99
2024-04-23T14:46:00.798Z,2.94
2024-04-23T14:51:05.159Z,3.21
2024-04-23T14:56:09.810Z,3.16
2024-04-23T15:01:14.131Z,3.13
2024-04-23T15:06:18.685Z,3.23
2024-04-23T15:11:23.442Z,3.19
2024-04-23T15:16:27.687Z,3.17
2024-04-23T15:21:32.099Z,3.25
2024-04-23T15:26:36.457Z,3.35
2024-04-23T15:31:40.692Z,3.26
2024-04-23T15:36:46.086Z,3.45
2024-04-23T15:41:50.703Z,3.60
2024-04-23T15:46:55.556Z,3.63
2024-04-23T15:52:00.237Z,3.62
2024-04-23T15:57:04.829Z,3.66
2024-04-23T16:02:09.459Z,3.73
2024-04-23T16:07:13.937Z,3.66
2024-04-23T16:12:19.194Z,3.44
2024-04-23T16:17:23.642Z,3.43
2024-04-23T16:22:31.064Z,3.19
2024-04-23T16:27:35.446Z,3.15
2024-04-23T16:32:40.427Z,3.17
2024-04-23T16:37:47.279Z,3.06
2024-04-23T16:42:51.922Z,3.31
2024-04-23T16:47:56.235Z,3.40
2024-04-23T16:53:00.759Z,3.27
2024-04-23T16:58:05.056Z,3.40
2024-04-23T17:03:09.679Z,3.36
2024-04-23T17:08:14.109Z,3.37
2024-04-23T17:13:20.117Z,3.43
2024-04-23T17:18:24.801Z,3.40
2024-04-23T17:23:33.478Z,3.28
2024-04-23T17:28:37.798Z,3.39
2024-04-23T17:33:41.949Z,3.41
2024-04-23T17:38:46.753Z,3.49
2024-04-23T17:43:51.354Z,3.43
2024-04-23T17:48:55.681Z,3.34
2024-04-23T17:53:59.927Z,3.49
2024-04-23T17:59:04.272Z,3.41
2024-04-23T18:04:08.757Z,3.34
2024-04-23T18:09:12.966Z,3.35
2024-04-23T18:14:17.851Z,3.39
2024-04-23T18:19:22.250Z,3.36
2024-04-23T18:24:26.775Z,3.31
2024-04-23T18:29:31.128Z,3.32
2024-04-23T18:34:35.680Z,3.30
2024-04-23T18:39:40.158Z,3.34
2024-04-23T18:44:46.271Z,3.30
2024-04-23T18:49:50.967Z,3.32
2024-04-23T18:54:56.813Z,3.23
2024-04-23T19:00:02.385Z,3.31
2024-04-23T19:05:06.645Z,3.19
2024-04-23T19:10:12.496Z,3.25
2024-04-23T19:15:18.009Z,3.24
2024-04-23T19:20:23.764Z,3.09
2024-04-23T19:25:29.262Z,3.04
2024-04-23T19:30:33.896Z,3.08
2024-04-23T19:35:38.523Z,3.01
2024-04-23T19:40:42.826Z,2.97
2024-04-23T19:45:48.082Z,3.01
2024-04-23T19:50:52.554Z,2.95
2024-04-23T19:55:56.799Z,2.91
2024-04-23T20:01:00.979Z,2.98
2024-04-23T20:06:05.209Z,2.78
2024-04-23T20:11:09.620Z,2.82
2024-04-23T20:16:17.418Z,2.79
2024-04-23T20:21:21.631Z,2.86
2024-04-23T20:26:25.916Z,2.77
2024-04-23T20:31:30.901Z,2.72
2024-04-23T20:36:35.404Z,2.77
2024-04-23T20:41:40.690Z,2.68
2024-04-23T20:46:45.212Z,2.66
2024-04-23T20:51:49.630Z,2.62
2024-04-23T20:56:54.184Z,2.55
2024-04-23T21:01:58.452Z,2.60
2024-04-23T21:07:02.828Z,2.44
2024-04-23T21:12:07.067Z,2.42
2024-04-23T21:17:11.472Z,2.42
2024-04-23T21:22:16.823Z,2.43
2024-04-23T21:27:21.132Z,2.41
2024-04-23T21:32:25.501Z,2.35
2024-04-23T21:37:29.931Z,2.38
2024-04-23T21:42:41.034Z,2.22
2024-04-23T21:47:46.594Z,2.28
2024-04-23T21:52:53.859Z,2.27
2024-04-23T21:57:58.472Z,2.29
2024-04-23T22:03:04.038Z,2.31
2024-04-23T22:08:08.442Z,2.27
2024-04-23T22:13:13.678Z,2.35
2024-04-23T22:18:18.443Z,2.34
2024-04-23T22:23:23.465Z,2.30
2024-04-23T22:28:27.925Z,2.30
2024-04-23T22:33:32.358Z,2.32
2024-04-23T22:38:36.760Z,2.37
2024-04-23T22:43:41.215Z,2.39
2024-04-23T22:48:45.721Z,2.33
2024-04-23T22:53:50.080Z,2.31
2024-04-23T22:58:54.747Z,2.27
2024-04-23T23:04:02.251Z,2.25
2024-04-23T23:09:06.901Z,2.32
2024-04-23T23:14:11.507Z,2.25
2024-04-23T23:19:15.999Z,2.22
2024-04-23T23:24:20.486Z,2.21
2024-04-23T23:29:25.237Z,2.22
2024-04-23T23:34:29.459Z,2.23
2024-04-23T23:39:33.793Z,2.23
2024-04-23T23:44:39.122Z,2.33
2024-04-23T23:49:43.386Z,2.26
2024-04-23T23:54:47.521Z,2.30
2024-04-23T23:59:51.771Z,2.31
